createdAt,value
2017-05-13T04:01:15.025Z,1007.76
2017-05-13T04:01:40.824Z,1007.82
2017-05-13T04:02:06.397Z,1007.78
2017-05-13T04:02:31.960Z,1007.79
2017-05-13T04:02:57.583Z,1007.83
2017-05-13T04:03:23.140Z,1007.79
2017-05-13T04:03:48.824Z,1007.79
2017-05-13T04:04:14.469Z,1007.77
2017-05-13T04:04:40.004Z,1007.78
2017-05-13T04:05:05.570Z,1007.75
2017-05-13T04:05:31.139Z,1007.75
2017-05-13T04:05:56.737Z,1007.76
2017-05-13T04:06:22.303Z,1007.76
2017-05-13T04:06:47.914Z,1007.7
2017-05-13T04:07:13.481Z,1007.74
2017-05-13T04:07:39.883Z,1007.73
2017-05-13T04:08:05.443Z,1007.78
2017-05-13T04:08:30.996Z,1007.73
2017-05-13T04:08:56.553Z,1007.76
2017-05-13T04:09:22.134Z,1007.76
2017-05-13T04:09:47.704Z,1007.75
2017-05-13T04:10:13.253Z,1007.75
2017-05-13T04:10:38.870Z,1007.75
2017-05-13T04:11:04.433Z,1007.76
2017-05-13T04:11:29.970Z,1007.73
2017-05-13T04:11:55.515Z,1007.73
2017-05-13T04:12:21.091Z,1007.73
2017-05-13T04:12:46.644Z,1007.7
2017-05-13T04:13:12.259Z,1007.73
2017-05-13T04:13:37.890Z,1007.76
2017-05-13T04:14:03.451Z,1007.77
2017-05-13T04:14:29.154Z,1007.79
2017-05-13T04:14:54.664Z,1007.81
2017-05-13T04:15:20.223Z,1007.8
2017-05-13T04:15:45.806Z,1007.82
2017-05-13T04:16:11.371Z,1007.82
2017-05-13T04:16:36.927Z,1007.86
2017-05-13T04:17:02.488Z,1007.82
2017-05-13T04:17:28.060Z,1007.86
2017-05-13T04:17:53.630Z,1007.82
2017-05-13T04:18:19.303Z,1007.85
2017-05-13T04:18:44.856Z,1007.81
2017-05-13T04:19:10.420Z,1007.84
2017-05-13T04:19:36.113Z,1007.83
2017-05-13T04:20:01.699Z,1007.83
2017-05-13T04:20:27.273Z,1007.86
2017-05-13T04:20:52.820Z,1007.85
2017-05-13T04:21:18.469Z,1007.84
2017-05-13T04:21:44.037Z,1007.85
2017-05-13T04:22:09.584Z,1007.83
2017-05-13T04:22:35.274Z,1007.83
2017-05-13T04:23:00.827Z,1007.83
2017-05-13T04:23:26.382Z,1007.78
2017-05-13T04:23:51.933Z,1007.81
2017-05-13T04:24:17.472Z,1007.83
2017-05-13T04:24:43.079Z,1007.77
2017-05-13T04:25:08.619Z,1007.76
2017-05-13T04:25:34.177Z,1007.8
2017-05-13T04:25:59.732Z,1007.75
2017-05-13T04:26:25.308Z,1007.78
2017-05-13T04:26:50.889Z,1007.81
2017-05-13T04:27:16.551Z,1007.79
2017-05-13T04:27:42.128Z,1007.83
2017-05-13T04:28:07.700Z,1007.81
2017-05-13T04:28:33.278Z,1007.82
2017-05-13T04:28:58.842Z,1007.85
2017-05-13T04:29:24.417Z,1007.86
2017-05-13T04:29:49.984Z,1007.91
2017-05-13T04:30:15.560Z,1007.89
2017-05-13T04:30:41.122Z,1007.85
2017-05-13T04:31:06.680Z,1007.84
2017-05-13T04:31:32.357Z,1007.83
2017-05-13T04:31:58.026Z,1007.84
2017-05-13T04:32:23.582Z,1007.8
2017-05-13T04:32:49.213Z,1007.86
2017-05-13T04:33:14.782Z,1007.82
2017-05-13T04:33:40.353Z,1007.83
2017-05-13T04:34:05.954Z,1007.78
2017-05-13T04:34:31.545Z,1007.75
2017-05-13T04:34:57.110Z,1007.76
2017-05-13T04:35:22.688Z,1007.77
2017-05-13T04:35:48.267Z,1007.83
2017-05-13T04:36:13.818Z,1007.74
2017-05-13T04:36:39.404Z,1007.77
2017-05-13T04:37:05.005Z,1007.8
2017-05-13T04:37:30.571Z,1007.76
2017-05-13T04:37:56.130Z,1007.75
2017-05-13T04:38:21.702Z,1007.77
2017-05-13T04:38:47.272Z,1007.79
2017-05-13T04:39:12.838Z,1007.78
2017-05-13T04:39:38.401Z,1007.78
2017-05-13T04:40:04.021Z,1007.75
2017-05-13T04:41:17.772Z,1007.76
2017-05-13T04:41:43.368Z,1007.76
2017-05-13T04:42:08.943Z,1007.77
2017-05-13T04:42:34.509Z,1007.77
2017-05-13T04:43:00.071Z,1007.76
2017-05-13T04:43:25.651Z,1007.79
2017-05-13T04:43:51.231Z,1007.79
2017-05-13T04:44:16.802Z,1007.78
2017-05-13T04:44:42.361Z,1007.79
2017-05-13T04:45:07.923Z,1007.76
2017-05-13T04:45:33.479Z,1007.79
2017-05-13T04:45:59.029Z,1007.8
2017-05-13T04:46:24.593Z,1007.81
2017-05-13T04:46:50.223Z,1007.81
2017-05-13T04:47:15.792Z,1007.8
2017-05-13T04:48:19.312Z,1007.83
2017-05-13T04:48:44.974Z,1007.87
2017-05-13T04:49:10.543Z,1007.86
2017-05-13T04:49:36.091Z,1007.82
2017-05-13T04:50:01.655Z,1007.81
2017-05-13T04:50:27.223Z,1007.87
2017-05-13T04:50:52.779Z,1007.89
2017-05-13T04:51:18.356Z,1007.86
2017-05-13T04:51:43.923Z,1007.86
2017-05-13T04:52:09.478Z,1007.85
2017-05-13T04:52:35.030Z,1007.86
2017-05-13T04:53:00.588Z,1007.84
2017-05-13T04:53:26.177Z,1007.86
2017-05-13T04:53:51.799Z,1007.84
2017-05-13T04:54:17.394Z,1007.9
2017-05-13T04:54:42.925Z,1007.9
2017-05-13T04:55:08.566Z,1007.87
2017-05-13T04:55:34.131Z,1007.85
2017-05-13T04:55:59.688Z,1007.86
2017-05-13T04:56:25.253Z,1007.82
2017-05-13T04:56:50.820Z,1007.87
2017-05-13T04:57:16.382Z,1007.88
2017-05-13T04:57:41.949Z,1007.91
2017-05-13T04:58:07.528Z,1007.91
2017-05-13T04:58:33.192Z,1007.86
2017-05-13T04:58:58.752Z,1007.94
2017-05-13T04:59:24.310Z,1007.91
2017-05-13T04:59:50.004Z,1007.92
2017-05-13T05:00:15.518Z,1007.92
2017-05-13T05:00:41.053Z,1007.95
2017-05-13T05:01:06.599Z,1007.91
2017-05-13T05:01:32.169Z,1007.96
2017-05-13T05:01:57.749Z,1007.91
2017-05-13T05:02:23.313Z,1007.91
2017-05-13T05:02:48.950Z,1007.93
2017-05-13T05:03:14.524Z,1007.95
2017-05-13T05:03:40.168Z,1007.99
2017-05-13T05:04:05.742Z,1007.97
2017-05-13T05:04:31.302Z,1007.97
2017-05-13T05:04:56.869Z,1007.98
2017-05-13T05:05:22.553Z,1007.93
2017-05-13T05:05:48.123Z,1007.92
2017-05-13T05:06:13.693Z,1007.93
2017-05-13T05:06:39.249Z,1007.92
2017-05-13T05:07:04.788Z,1007.94
2017-05-13T05:07:30.340Z,1007.94
2017-05-13T05:07:55.902Z,1007.94
2017-05-13T05:08:21.474Z,1007.92
2017-05-13T05:08:47.031Z,1007.95
2017-05-13T05:09:12.602Z,1007.97
2017-05-13T05:09:38.178Z,1007.96
2017-05-13T05:10:03.754Z,1007.96
2017-05-13T05:10:29.296Z,1007.92
2017-05-13T05:10:54.889Z,1007.96
2017-05-13T05:11:20.500Z,1007.97
2017-05-13T05:11:46.074Z,1007.98
2017-05-13T05:12:11.625Z,1007.97
2017-05-13T05:12:37.189Z,1007.98
2017-05-13T05:13:02.809Z,1007.95
2017-05-13T05:13:28.361Z,1007.99
2017-05-13T05:13:53.922Z,1008
2017-05-13T05:14:19.477Z,1007.96
2017-05-13T05:14:45.063Z,1008.01
2017-05-13T05:15:10.623Z,1008.02
2017-05-13T05:15:36.208Z,1008.04
2017-05-13T05:16:01.767Z,1008.04
2017-05-13T05:16:27.438Z,1008.06
2017-05-13T05:16:53.007Z,1008.03
2017-05-13T05:17:18.573Z,1008.06
2017-05-13T05:17:44.250Z,1008.03
2017-05-13T05:18:09.869Z,1008.06
2017-05-13T05:18:35.433Z,1008.08
2017-05-13T05:19:01.012Z,1008.06
2017-05-13T05:19:26.582Z,1008.08
2017-05-13T05:19:52.150Z,1008.06
2017-05-13T05:20:17.704Z,1008.05
2017-05-13T05:20:43.253Z,1008.06
2017-05-13T05:21:08.849Z,1008.06
2017-05-13T05:21:34.433Z,1008.08
2017-05-13T05:22:00.008Z,1008.09
2017-05-13T05:22:25.577Z,1008.07
2017-05-13T05:22:51.168Z,1008.09
2017-05-13T05:23:16.883Z,1008.04
2017-05-13T05:23:42.444Z,1008.09
2017-05-13T05:24:08.012Z,1008.07
2017-05-13T05:24:33.642Z,1008.04
2017-05-13T05:24:59.202Z,1008.1
2017-05-13T05:25:24.769Z,1008.07
2017-05-13T05:25:50.449Z,1008.09
2017-05-13T05:26:16.003Z,1008.11
2017-05-13T05:26:41.604Z,1008.14
2017-05-13T05:27:07.259Z,1008.08
2017-05-13T05:27:32.812Z,1008.11
2017-05-13T05:27:58.358Z,1008.08
2017-05-13T05:28:23.918Z,1008.09
2017-05-13T05:28:49.521Z,1008.11
2017-05-13T05:29:15.089Z,1008.14
2017-05-13T05:29:40.673Z,1008.15
2017-05-13T05:30:06.292Z,1008.2
2017-05-13T05:30:31.802Z,1008.17
2017-05-13T05:30:57.444Z,1008.16
2017-05-13T05:31:23.030Z,1008.23
2017-05-13T05:31:48.584Z,1008.22
2017-05-13T05:32:14.148Z,1008.2
2017-05-13T05:32:39.910Z,1008.24
2017-05-13T05:33:05.484Z,1008.23
2017-05-13T05:33:31.053Z,1008.23
2017-05-13T05:33:56.629Z,1008.18
2017-05-13T05:34:22.274Z,1008.27
2017-05-13T05:34:47.820Z,1008.24
2017-05-13T05:35:13.394Z,1008.28
2017-05-13T05:35:39.032Z,1008.29
2017-05-13T05:36:04.603Z,1008.33
2017-05-13T05:36:30.163Z,1008.33
2017-05-13T05:36:55.694Z,1008.31
2017-05-13T05:37:21.230Z,1008.29
2017-05-13T05:37:46.810Z,1008.31
2017-05-13T05:38:12.453Z,1008.32
2017-05-13T05:38:38.013Z,1008.31
2017-05-13T05:39:03.593Z,1008.37
2017-05-13T05:39:29.147Z,1008.37
2017-05-13T05:39:54.705Z,1008.34
2017-05-13T05:40:20.414Z,1008.4
2017-05-13T05:40:45.984Z,1008.36
2017-05-13T05:41:11.569Z,1008.36
2017-05-13T05:41:37.146Z,1008.37
2017-05-13T05:42:02.734Z,1008.36
2017-05-13T05:42:28.289Z,1008.38
2017-05-13T05:42:53.855Z,1008.38
2017-05-13T05:43:19.408Z,1008.39
2017-05-13T05:43:44.958Z,1008.37
2017-05-13T05:44:10.609Z,1008.36
2017-05-13T05:44:36.171Z,1008.38
2017-05-13T05:45:01.730Z,1008.4
2017-05-13T05:45:27.300Z,1008.38
2017-05-13T05:45:52.922Z,1008.41
2017-05-13T05:46:18.457Z,1008.4
2017-05-13T05:46:44.007Z,1008.43
2017-05-13T05:47:09.546Z,1008.44
2017-05-13T05:47:35.097Z,1008.41
2017-05-13T05:48:00.675Z,1008.4
2017-05-13T05:48:26.253Z,1008.4
2017-05-13T05:48:51.817Z,1008.45
2017-05-13T05:49:17.396Z,1008.44
2017-05-13T05:49:42.978Z,1008.43
2017-05-13T05:50:08.545Z,1008.45
2017-05-13T05:50:34.109Z,1008.49
2017-05-13T05:50:59.658Z,1008.44
2017-05-13T05:51:25.253Z,1008.46
2017-05-13T05:51:50.843Z,1008.49
2017-05-13T05:52:16.398Z,1008.48
2017-05-13T05:52:41.971Z,1008.52
2017-05-13T05:53:07.521Z,1008.54
2017-05-13T05:53:33.114Z,1008.56
2017-05-13T05:53:58.705Z,1008.56
2017-05-13T05:54:24.282Z,1008.6
2017-05-13T05:54:49.842Z,1008.59
2017-05-13T05:55:15.420Z,1008.63
2017-05-13T05:55:41.003Z,1008.61
2017-05-13T05:56:06.566Z,1008.63
2017-05-13T05:56:32.143Z,1008.61
2017-05-13T05:56:57.760Z,1008.66
2017-05-13T05:57:23.325Z,1008.61
2017-05-13T05:57:48.904Z,1008.63
2017-05-13T05:58:14.470Z,1008.63
2017-05-13T05:58:40.043Z,1008.64
2017-05-13T05:59:05.639Z,1008.63
2017-05-13T05:59:31.203Z,1008.63
2017-05-13T05:59:56.770Z,1008.65
2017-05-13T06:00:22.392Z,1008.64
2017-05-13T06:00:48.082Z,1008.62
2017-05-13T06:01:51.588Z,1008.67
2017-05-13T06:02:17.150Z,1008.66
2017-05-13T06:02:42.709Z,1008.66
2017-05-13T06:03:08.292Z,1008.68
2017-05-13T06:03:33.885Z,1008.65
2017-05-13T06:03:59.434Z,1008.64
2017-05-13T06:04:24.982Z,1008.65
2017-05-13T06:04:50.696Z,1008.66
2017-05-13T06:05:16.263Z,1008.65
2017-05-13T06:05:41.838Z,1008.67
2017-05-13T06:06:07.411Z,1008.67
2017-05-13T06:06:32.990Z,1008.65
2017-05-13T06:06:58.567Z,1008.7
2017-05-13T06:07:24.120Z,1008.66
2017-05-13T06:07:49.672Z,1008.67
2017-05-13T06:08:15.226Z,1008.71
2017-05-13T06:08:40.780Z,1008.65
2017-05-13T06:09:06.339Z,1008.7
2017-05-13T06:09:32.159Z,1008.67
2017-05-13T06:09:57.773Z,1008.67
2017-05-13T06:10:23.432Z,1008.69
2017-05-13T06:10:49.018Z,1008.7
2017-05-13T06:11:14.580Z,1008.67
2017-05-13T06:11:40.172Z,1008.69
2017-05-13T06:12:05.807Z,1008.73
2017-05-13T06:12:31.359Z,1008.71
2017-05-13T06:12:56.934Z,1008.73
2017-05-13T06:13:22.501Z,1008.74
2017-05-13T06:13:48.080Z,1008.73
2017-05-13T06:14:13.696Z,1008.73
2017-05-13T06:14:39.240Z,1008.75
2017-05-13T06:15:04.913Z,1008.75
2017-05-13T06:15:30.473Z,1008.75
2017-05-13T06:15:56.087Z,1008.71
2017-05-13T06:16:21.663Z,1008.72
2017-05-13T06:16:47.320Z,1008.71
2017-05-13T06:17:12.909Z,1008.75
2017-05-13T06:17:38.463Z,1008.75
2017-05-13T06:18:04.009Z,1008.71
2017-05-13T06:18:29.673Z,1008.71
2017-05-13T06:18:55.227Z,1008.75
2017-05-13T06:19:20.803Z,1008.72
2017-05-13T06:19:46.393Z,1008.76
2017-05-13T06:20:12.054Z,1008.73
2017-05-13T06:20:37.622Z,1008.72
2017-05-13T06:21:03.243Z,1008.74
2017-05-13T06:21:28.923Z,1008.74
2017-05-13T06:21:54.506Z,1008.71
2017-05-13T06:22:20.140Z,1008.75
2017-05-13T06:22:45.740Z,1008.76
2017-05-13T06:23:11.341Z,1008.77
2017-05-13T06:23:36.930Z,1008.78
2017-05-13T06:24:02.501Z,1008.76
2017-05-13T06:24:28.141Z,1008.75
2017-05-13T06:24:53.733Z,1008.79
2017-05-13T06:25:19.345Z,1008.8
2017-05-13T06:25:44.962Z,1008.83
2017-05-13T06:26:10.544Z,1008.86
2017-05-13T06:26:36.218Z,1008.81
2017-05-13T06:27:01.814Z,1008.86
2017-05-13T06:28:05.704Z,1008.9
2017-05-13T06:28:31.287Z,1008.9
2017-05-13T06:28:56.840Z,1008.87
2017-05-13T06:29:22.411Z,1008.88
2017-05-13T06:29:48.049Z,1008.91
2017-05-13T06:30:13.601Z,1008.91
2017-05-13T06:30:39.189Z,1008.91
2017-05-13T06:31:04.735Z,1008.92
2017-05-13T06:31:30.269Z,1008.96
2017-05-13T06:31:55.809Z,1008.99
2017-05-13T06:32:21.363Z,1008.96
2017-05-13T06:32:46.931Z,1008.95
2017-05-13T06:33:12.474Z,1009
2017-05-13T06:33:38.008Z,1008.98
2017-05-13T06:34:03.572Z,1008.93
2017-05-13T06:34:29.114Z,1008.94
2017-05-13T06:34:54.648Z,1008.94
2017-05-13T06:35:20.234Z,1008.96
2017-05-13T06:35:45.911Z,1008.94
2017-05-13T06:36:11.463Z,1008.97
2017-05-13T06:36:36.999Z,1008.95
2017-05-13T06:37:02.550Z,1008.96
2017-05-13T06:37:28.101Z,1008.96
2017-05-13T06:37:53.759Z,1008.92
2017-05-13T06:38:19.320Z,1008.91
2017-05-13T06:38:44.879Z,1008.94
2017-05-13T06:39:10.524Z,1008.94
2017-05-13T06:39:36.083Z,1008.96
2017-05-13T06:40:01.653Z,1008.96
2017-05-13T06:40:27.385Z,1008.96
2017-05-13T06:40:52.965Z,1008.96
2017-05-13T06:41:18.535Z,1008.96
2017-05-13T06:41:44.136Z,1009.01
2017-05-13T06:42:09.712Z,1008.98
2017-05-13T06:42:35.316Z,1009.01
2017-05-13T06:43:00.862Z,1008.97
2017-05-13T06:43:26.450Z,1009.01
2017-05-13T06:46:06.760Z,1008.99
2017-05-13T06:46:32.369Z,1009.04
2017-05-13T06:46:57.963Z,1009.02
2017-05-13T06:47:23.605Z,1009.03
2017-05-13T06:47:49.159Z,1009.04
2017-05-13T06:48:14.726Z,1009.05
2017-05-13T06:48:40.300Z,1009.05
2017-05-13T06:49:05.850Z,1009.06
2017-05-13T06:49:31.417Z,1009.1
2017-05-13T06:49:57.111Z,1009.08
2017-05-13T06:50:22.658Z,1009.11
2017-05-13T06:50:48.230Z,1009.09
2017-05-13T06:51:13.773Z,1009.13
2017-05-13T06:51:39.337Z,1009.11
2017-05-13T06:52:04.908Z,1009.1
2017-05-13T06:52:30.490Z,1009.13
2017-05-13T06:52:56.131Z,1009.12
2017-05-13T06:53:21.763Z,1009.12
2017-05-13T06:53:47.329Z,1009.14
2017-05-13T06:54:12.892Z,1009.12
2017-05-13T06:54:38.654Z,1009.14
2017-05-13T06:55:04.237Z,1009.13
2017-05-13T06:55:29.796Z,1009.1
2017-05-13T06:55:55.473Z,1009.13
2017-05-13T06:56:21.092Z,1009.14
2017-05-13T06:56:46.712Z,1009.14
2017-05-13T06:57:12.266Z,1009.15
2017-05-13T06:57:38.032Z,1009.14
2017-05-13T06:58:03.598Z,1009.16
2017-05-13T06:58:29.169Z,1009.15
2017-05-13T06:58:54.725Z,1009.17
2017-05-13T06:59:20.344Z,1009.16
2017-05-13T06:59:45.925Z,1009.19
2017-05-13T07:00:11.493Z,1009.18
2017-05-13T07:00:37.040Z,1009.18
2017-05-13T07:01:02.825Z,1009.17
2017-05-13T07:01:28.386Z,1009.21
2017-05-13T07:01:53.939Z,1009.18
2017-05-13T07:02:19.503Z,1009.19
2017-05-13T07:02:45.085Z,1009.2
2017-05-13T07:03:10.643Z,1009.22
2017-05-13T07:03:36.206Z,1009.21
2017-05-13T07:04:01.767Z,1009.22
2017-05-13T07:04:27.343Z,1009.19
2017-05-13T07:04:52.922Z,1009.21
2017-05-13T07:05:18.545Z,1009.21
2017-05-13T07:05:44.115Z,1009.24
2017-05-13T07:06:09.805Z,1009.21
2017-05-13T07:06:35.384Z,1009.23
2017-05-13T07:07:00.945Z,1009.24
2017-05-13T07:07:26.571Z,1009.28
2017-05-13T07:07:52.162Z,1009.24
2017-05-13T07:08:17.721Z,1009.27
2017-05-13T07:08:43.599Z,1009.27
2017-05-13T07:09:09.156Z,1009.26
2017-05-13T07:09:34.845Z,1009.26
2017-05-13T07:10:00.395Z,1009.29
2017-05-13T07:10:25.951Z,1009.28
2017-05-13T07:10:51.516Z,1009.26
2017-05-13T07:11:17.079Z,1009.28
2017-05-13T07:11:42.641Z,1009.26
2017-05-13T07:12:08.290Z,1009.29
2017-05-13T07:12:33.870Z,1009.26
2017-05-13T07:12:59.435Z,1009.31
2017-05-13T07:13:25.007Z,1009.28
2017-05-13T07:13:50.559Z,1009.29
2017-05-13T07:14:16.208Z,1009.29
2017-05-13T07:14:41.807Z,1009.32
2017-05-13T07:15:07.392Z,1009.32
2017-05-13T07:15:32.954Z,1009.36
2017-05-13T07:15:58.524Z,1009.36
2017-05-13T07:16:24.092Z,1009.33
2017-05-13T07:16:49.668Z,1009.35
2017-05-13T07:17:15.212Z,1009.35
2017-05-13T07:17:40.780Z,1009.44
2017-05-13T07:18:06.360Z,1009.42
2017-05-13T07:18:31.968Z,1009.42
2017-05-13T07:18:57.572Z,1009.42
2017-05-13T07:19:23.132Z,1009.42
2017-05-13T07:19:48.773Z,1009.45
2017-05-13T07:20:14.466Z,1009.45
2017-05-13T07:20:40.018Z,1009.45
2017-05-13T07:21:05.581Z,1009.42
2017-05-13T07:21:31.147Z,1009.46
2017-05-13T07:21:56.711Z,1009.41
2017-05-13T07:22:22.303Z,1009.42
2017-05-13T07:22:47.849Z,1009.44
2017-05-13T07:23:13.410Z,1009.44
2017-05-13T07:23:39.076Z,1009.41
2017-05-13T07:24:04.729Z,1009.41
2017-05-13T07:24:30.291Z,1009.43
2017-05-13T07:24:55.858Z,1009.47
2017-05-13T07:25:21.457Z,1009.42
2017-05-13T07:25:47.023Z,1009.44
2017-05-13T07:26:12.619Z,1009.43
2017-05-13T07:26:38.188Z,1009.47
2017-05-13T07:27:03.810Z,1009.48
2017-05-13T07:27:29.378Z,1009.45
2017-05-13T07:27:55.001Z,1009.46
2017-05-13T07:28:20.553Z,1009.43
2017-05-13T07:28:46.102Z,1009.44
2017-05-13T07:29:11.735Z,1009.47
2017-05-13T07:29:37.314Z,1009.47
2017-05-13T07:30:02.874Z,1009.43
2017-05-13T07:30:28.434Z,1009.49
2017-05-13T07:30:54.001Z,1009.5
2017-05-13T07:31:19.568Z,1009.5
2017-05-13T07:31:45.282Z,1009.5
2017-05-13T07:32:10.850Z,1009.5
2017-05-13T07:32:36.420Z,1009.55
2017-05-13T07:33:02.002Z,1009.55
2017-05-13T07:33:27.600Z,1009.54
2017-05-13T07:33:53.122Z,1009.56
2017-05-13T07:34:18.776Z,1009.56
2017-05-13T07:34:44.386Z,1009.61
2017-05-13T07:35:09.963Z,1009.59
2017-05-13T07:35:35.536Z,1009.58
2017-05-13T07:36:01.128Z,1009.57
2017-05-13T07:36:26.698Z,1009.59
2017-05-13T07:36:52.289Z,1009.55
2017-05-13T07:37:17.936Z,1009.56
2017-05-13T07:37:43.512Z,1009.57
2017-05-13T07:38:09.080Z,1009.55
2017-05-13T07:39:17.710Z,1009.59
2017-05-13T07:39:43.922Z,1009.59
2017-05-13T07:41:58.741Z,1009.55
2017-05-13T07:42:24.313Z,1009.55
2017-05-13T07:42:49.886Z,1009.56
2017-05-13T07:43:15.487Z,1009.57
2017-05-13T07:43:41.058Z,1009.53
2017-05-13T07:44:06.583Z,1009.55
2017-05-13T07:44:32.129Z,1009.54
2017-05-13T07:44:57.798Z,1009.56
2017-05-13T07:45:23.374Z,1009.57
2017-05-13T07:45:48.933Z,1009.56
2017-05-13T07:46:14.565Z,1009.56
2017-05-13T07:46:40.179Z,1009.56
2017-05-13T07:47:05.728Z,1009.58
2017-05-13T07:47:31.417Z,1009.57
2017-05-13T07:47:56.997Z,1009.57
2017-05-13T07:48:22.556Z,1009.56
2017-05-13T07:48:48.111Z,1009.57
2017-05-13T07:49:13.684Z,1009.55
2017-05-13T07:49:39.230Z,1009.56
2017-05-13T07:50:04.794Z,1009.55
2017-05-13T07:50:30.380Z,1009.56
2017-05-13T07:50:55.940Z,1009.52
2017-05-13T07:51:21.519Z,1009.58
2017-05-13T07:51:47.168Z,1009.56
2017-05-13T07:52:55.771Z,1009.53
2017-05-13T07:53:22.108Z,1009.57
2017-05-13T07:55:28.483Z,1009.53
2017-05-13T07:55:54.074Z,1009.57
2017-05-13T07:56:19.618Z,1009.57
2017-05-13T07:56:45.175Z,1009.58
2017-05-13T07:57:10.740Z,1009.56
2017-05-13T07:57:36.392Z,1009.58
2017-05-13T07:58:01.951Z,1009.57
2017-05-13T07:58:27.487Z,1009.56
2017-05-13T07:58:53.055Z,1009.53
2017-05-13T07:59:18.633Z,1009.56
2017-05-13T07:59:44.220Z,1009.53
2017-05-13T08:00:09.791Z,1009.52
2017-05-13T08:00:35.360Z,1009.51
2017-05-13T08:01:00.937Z,1009.53
2017-05-13T08:01:26.543Z,1009.51
2017-05-13T08:01:52.088Z,1009.48
2017-05-13T08:02:17.660Z,1009.49
2017-05-13T08:02:43.214Z,1009.45
2017-05-13T08:03:08.830Z,1009.44
2017-05-13T08:03:34.423Z,1009.46
2017-05-13T08:03:59.969Z,1009.44
2017-05-13T08:04:25.519Z,1009.49
2017-05-13T08:04:51.071Z,1009.46
2017-05-13T08:05:16.663Z,1009.48
2017-05-13T08:05:42.281Z,1009.41
2017-05-13T08:06:07.840Z,1009.51
2017-05-13T08:06:33.405Z,1009.47
2017-05-13T08:07:42.233Z,1009.44
2017-05-13T08:08:07.824Z,1009.47
2017-05-13T08:08:33.381Z,1009.51
2017-05-13T08:08:58.964Z,1009.47
2017-05-13T08:09:24.524Z,1009.48
2017-05-13T08:09:50.081Z,1009.5
2017-05-13T08:10:15.671Z,1009.52
2017-05-13T08:10:41.229Z,1009.56
2017-05-13T08:11:06.869Z,1009.55
2017-05-13T08:11:32.409Z,1009.59
2017-05-13T08:11:57.959Z,1009.59
2017-05-13T08:12:23.630Z,1009.62
2017-05-13T08:12:49.241Z,1009.61
2017-05-13T08:13:14.792Z,1009.63
2017-05-13T08:13:40.460Z,1009.64
2017-05-13T08:14:06.073Z,1009.65
2017-05-13T08:14:31.628Z,1009.69
2017-05-13T08:14:57.195Z,1009.7
2017-05-13T08:15:22.770Z,1009.71
2017-05-13T08:15:48.326Z,1009.76
2017-05-13T08:16:13.883Z,1009.78
2017-05-13T08:16:39.413Z,1009.83
2017-05-13T08:17:04.966Z,1009.85
2017-05-13T08:17:30.561Z,1009.88
2017-05-13T08:17:56.120Z,1009.87
2017-05-13T08:18:21.730Z,1009.92
2017-05-13T08:18:47.270Z,1009.98
2017-05-13T08:19:12.828Z,1009.96
2017-05-13T08:19:38.507Z,1009.94
2017-05-13T08:20:04.082Z,1009.98
2017-05-13T08:20:29.701Z,1009.94
2017-05-13T08:20:55.262Z,1009.98
2017-05-13T08:21:20.822Z,1009.98
2017-05-13T08:21:46.391Z,1009.99
2017-05-13T08:22:12.000Z,1010
2017-05-13T08:22:37.579Z,1009.99
2017-05-13T08:23:03.135Z,1009.96
2017-05-13T08:23:28.698Z,1010.04
2017-05-13T08:23:54.261Z,1010.03
2017-05-13T08:24:19.827Z,1010.03
2017-05-13T08:24:45.378Z,1010.04
2017-05-13T08:25:10.985Z,1010.04
2017-05-13T08:25:36.549Z,1010.06
2017-05-13T08:26:02.091Z,1010.04
2017-05-13T08:26:27.680Z,1010.05
2017-05-13T08:26:53.218Z,1010.03
2017-05-13T08:27:18.778Z,1010.04
2017-05-13T08:27:44.342Z,1010.01
2017-05-13T08:28:09.888Z,1010.02
2017-05-13T08:28:35.459Z,1009.98
2017-05-13T08:29:01.075Z,1009.95
2017-05-13T08:29:26.638Z,1010
2017-05-13T08:29:52.195Z,1009.99
2017-05-13T08:30:17.939Z,1009.96
2017-05-13T08:30:43.479Z,1009.95
2017-05-13T08:31:09.049Z,1009.95
2017-05-13T08:31:34.632Z,1010.01
2017-05-13T08:32:00.216Z,1009.97
2017-05-13T08:32:25.773Z,1009.97
2017-05-13T08:32:51.498Z,1009.93
2017-05-13T08:33:17.074Z,1009.92
2017-05-13T08:33:42.632Z,1009.99
2017-05-13T08:34:08.217Z,1009.99
2017-05-13T08:34:33.770Z,1009.98
2017-05-13T08:34:59.323Z,1009.97
2017-05-13T08:35:24.887Z,1010.04
2017-05-13T08:35:50.462Z,1010.06
2017-05-13T08:36:16.017Z,1010.06
2017-05-13T08:36:41.587Z,1010.04
2017-05-13T08:37:07.148Z,1010.06
2017-05-13T08:37:32.696Z,1010.04
2017-05-13T08:37:58.255Z,1009.99
2017-05-13T08:38:23.811Z,1010.02
2017-05-13T08:38:49.398Z,1010.01
2017-05-13T08:39:15.098Z,1010.07
2017-05-13T08:39:40.662Z,1010.07
2017-05-13T08:40:06.902Z,1010.07
2017-05-13T08:40:32.451Z,1010.09
2017-05-13T08:40:58.055Z,1010.09
2017-05-13T08:41:23.686Z,1010.09
2017-05-13T08:41:49.566Z,1010.09
2017-05-13T08:42:15.218Z,1010.09
2017-05-13T08:42:40.781Z,1010.07
2017-05-13T08:43:06.405Z,1010.07
2017-05-13T08:43:32.001Z,1010.07
2017-05-13T08:43:57.572Z,1010.08
2017-05-13T08:44:23.126Z,1010.1
2017-05-13T08:44:48.689Z,1010.07
2017-05-13T08:45:14.268Z,1010.06
2017-05-13T08:45:39.842Z,1010.1
2017-05-13T08:46:05.437Z,1010.05
2017-05-13T08:46:31.289Z,1010.08
2017-05-13T08:47:50.266Z,1010.05
2017-05-13T08:48:15.944Z,1010.09
2017-05-13T08:48:41.420Z,1010.08
2017-05-13T08:49:06.995Z,1010.03
2017-05-13T08:49:32.570Z,1010.11
2017-05-13T08:49:58.191Z,1010.09
2017-05-13T08:50:23.758Z,1010.08
2017-05-13T08:50:49.331Z,1010.13
2017-05-13T08:51:14.893Z,1010.1
2017-05-13T08:51:40.456Z,1010.11
2017-05-13T08:52:06.038Z,1010.11
2017-05-13T08:52:31.591Z,1010.13
2017-05-13T08:52:57.230Z,1010.1
2017-05-13T08:53:22.791Z,1010.11
2017-05-13T08:53:48.478Z,1010.1
2017-05-13T08:54:14.039Z,1010.08
2017-05-13T08:54:39.615Z,1010.11
2017-05-13T08:55:05.191Z,1010.13
2017-05-13T08:55:30.902Z,1010.1
2017-05-13T08:55:56.659Z,1010.15
2017-05-13T08:56:55.277Z,1010.16
2017-05-13T08:57:20.866Z,1010.17
2017-05-13T08:57:46.492Z,1010.16
2017-05-13T08:58:12.073Z,1010.16
2017-05-13T08:58:37.635Z,1010.15
2017-05-13T08:59:03.251Z,1010.12
2017-05-13T08:59:28.821Z,1010.12
2017-05-13T08:59:54.424Z,1010.13
2017-05-13T09:00:20.009Z,1010.19
2017-05-13T09:00:45.623Z,1010.14
2017-05-13T09:01:11.189Z,1010.17
2017-05-13T09:01:36.932Z,1010.16
2017-05-13T09:02:02.530Z,1010.14
2017-05-13T09:02:28.078Z,1010.18
2017-05-13T09:02:53.639Z,1010.15
2017-05-13T09:04:12.549Z,1010.14
2017-05-13T09:04:38.099Z,1010.17
2017-05-13T09:05:03.648Z,1010.17
2017-05-13T09:05:29.204Z,1010.16
2017-05-13T09:05:54.799Z,1010.17
2017-05-13T09:06:20.410Z,1010.19
2017-05-13T09:06:46.031Z,1010.18
2017-05-13T09:07:11.649Z,1010.21
2017-05-13T09:07:37.350Z,1010.26
2017-05-13T09:08:02.909Z,1010.19
2017-05-13T09:08:28.552Z,1010.23
2017-05-13T09:08:54.261Z,1010.21
2017-05-13T09:09:19.834Z,1010.2
2017-05-13T09:09:45.411Z,1010.19
2017-05-13T09:10:11.067Z,1010.25
2017-05-13T09:10:36.687Z,1010.24
2017-05-13T09:11:02.240Z,1010.21
2017-05-13T09:11:27.797Z,1010.26
2017-05-13T09:11:53.360Z,1010.25
2017-05-13T09:12:18.910Z,1010.27
2017-05-13T09:12:44.493Z,1010.23
2017-05-13T09:13:10.044Z,1010.23
2017-05-13T09:13:35.697Z,1010.22
2017-05-13T09:14:01.250Z,1010.27
2017-05-13T09:14:26.809Z,1010.24
2017-05-13T09:14:52.578Z,1010.28
2017-05-13T09:15:18.119Z,1010.25
2017-05-13T09:15:43.679Z,1010.25
2017-05-13T09:16:09.233Z,1010.27
2017-05-13T09:16:34.869Z,1010.29
2017-05-13T09:17:00.420Z,1010.27
2017-05-13T09:17:25.958Z,1010.3
2017-05-13T09:17:51.603Z,1010.26
2017-05-13T09:18:17.185Z,1010.28
2017-05-13T09:18:42.740Z,1010.26
2017-05-13T09:19:08.294Z,1010.32
2017-05-13T09:19:33.863Z,1010.33
2017-05-13T09:19:59.464Z,1010.33
2017-05-13T09:20:25.023Z,1010.33
2017-05-13T09:20:50.595Z,1010.31
2017-05-13T09:21:16.156Z,1010.35
2017-05-13T09:21:42.030Z,1010.35
2017-05-13T09:22:07.607Z,1010.36
2017-05-13T09:22:33.178Z,1010.37
2017-05-13T09:22:58.736Z,1010.36
2017-05-13T09:23:24.303Z,1010.31
2017-05-13T09:23:49.845Z,1010.36
2017-05-13T09:24:15.388Z,1010.35